Time;durP1;ratioP1;P1;durP2;ratioP2;P2;SDS_P1;SDS_P2;PMS_P1;PMS_P2;Temp;Humidity;BMP_temperature;BMP_pressure;BME280_temperature;BME280_humidity;BME280_pressure;Samples;Min_cycle;Max_cycle;Signal;HPM_P1;HPM_P2
2021/09/06 00:01:45;;;;;;;42.05;16.77;;;;;;;13.52;100.00;102224.38;5166582;28;20046;-83
2021/09/06 00:04:15;;;;;;;47.10;18.50;;;;;;;13.15;100.00;102227.94;5183652;28;20493;-83
2021/09/06 00:06:46;;;;;;;35.90;16.98;;;;;;;13.03;100.00;102227.28;5183476;28;20125;-83
2021/09/06 00:09:16;;;;;;;37.50;18.30;;;;;;;12.86;100.00;102223.53;5183729;28;20030;-83
2021/09/06 00:11:47;;;;;;;32.67;16.90;;;;;;;12.74;100.00;102226.56;5197224;28;20049;-82
2021/09/06 00:14:18;;;;;;;31.92;17.05;;;;;;;12.63;100.00;102228.44;5188649;28;20518;-82
2021/09/06 00:16:48;;;;;;;45.22;19.35;;;;;;;12.57;100.00;102228.16;5186826;28;20052;-83
2021/09/06 00:19:21;;;;;;;40.20;18.80;;;;;;;12.58;100.00;102230.72;5187566;28;20065;-83
2021/09/06 00:21:52;;;;;;;37.25;18.55;;;;;;;12.50;100.00;102225.22;5188611;28;20080;-82
2021/09/06 00:24:22;;;;;;;40.88;19.15;;;;;;;12.46;100.00;102231.03;5186936;28;20386;-82
2021/09/06 00:26:53;;;;;;;49.45;21.08;;;;;;;12.40;100.00;102225.25;5186552;28;20034;-82
2021/09/06 00:29:23;;;;;;;44.72;19.40;;;;;;;12.36;100.00;102220.28;5187349;28;20071;-82
2021/09/06 00:31:53;;;;;;;44.95;20.23;;;;;;;12.35;100.00;102218.56;5187218;28;20076;-83
2021/09/06 00:34:24;;;;;;;47.40;27.52;;;;;;;12.42;100.00;102214.31;5185221;28;20025;-82
2021/09/06 00:36:54;;;;;;;1999.90;311.60;;;;;;;12.67;100.00;102219.06;5187657;28;20073;-82
2021/09/06 00:39:25;;;;;;;622.38;94.03;;;;;;;12.84;100.00;102214.75;5187344;28;20018;-83
2021/09/06 00:41:55;;;;;;;28.23;13.93;;;;;;;12.78;100.00;102214.50;5186327;28;20041;-82
2021/09/06 00:44:26;;;;;;;130.82;40.75;;;;;;;12.70;100.00;102213.41;5185335;28;20091;-83
2021/09/06 00:47:00;;;;;;;24.02;13.88;;;;;;;12.70;100.00;102213.41;5186729;28;20018;-83
2021/09/06 00:49:30;;;;;;;28.50;12.75;;;;;;;12.53;100.00;102206.06;5186284;28;20025;-83
2021/09/06 00:52:01;;;;;;;25.88;11.68;;;;;;;12.38;100.00;102204.84;5187642;28;20026;-83
2021/09/06 00:54:31;;;;;;;20.50;11.15;;;;;;;12.26;100.00;102204.16;5187532;28;20030;-83
2021/09/06 00:57:02;;;;;;;19.63;11.02;;;;;;;12.19;100.00;102206.56;5188422;28;20339;-82
2021/09/06 00:59:33;;;;;;;106.20;46.70;;;;;;;12.26;100.00;102219.44;5188767;28;20391;-83
2021/09/06 01:02:03;;;;;;;1209.55;181.38;;;;;;;12.29;100.00;102220.00;5188853;28;20072;-83
2021/09/06 01:04:34;;;;;;;38.58;18.55;;;;;;;12.41;100.00;102218.84;5187092;28;20511;-82
2021/09/06 01:07:04;;;;;;;33.35;16.05;;;;;;;12.34;100.00;102227.63;5187589;28;20108;-83
2021/09/06 01:09:35;;;;;;;28.25;15.30;;;;;;;12.24;100.00;102224.97;5188586;28;20021;-83
2021/09/06 01:12:06;;;;;;;41.63;20.27;;;;;;;12.29;100.00;102229.91;5187726;28;20072;-82
2021/09/06 01:14:37;;;;;;;32.10;15.85;;;;;;;12.30;100.00;102231.59;5188319;28;20469;-82
2021/09/06 01:17:08;;;;;;;290.83;68.28;;;;;;;12.21;100.00;102236.03;5170545;28;20014;-83
2021/09/06 01:19:39;;;;;;;31.30;15.02;;;;;;;12.13;100.00;102228.66;5187661;28;20053;-83
2021/09/06 01:22:21;;;;;;;28.35;15.38;;;;;;;12.04;100.00;102226.81;5188355;28;20058;-83
2021/09/06 01:24:52;;;;;;;25.58;12.23;;;;;;;11.94;100.00;102228.66;5188364;28;20056;-83
2021/09/06 01:27:23;;;;;;;22.58;12.05;;;;;;;11.83;100.00;102223.44;5187943;28;20075;-83
2021/09/06 01:29:53;;;;;;;1999.90;379.33;;;;;;;11.84;100.00;102225.13;5187883;28;20069;-82
2021/09/06 01:32:24;;;;;;;136.15;98.95;;;;;;;12.33;100.00;102226.78;5187881;28;20022;-82
2021/09/06 01:34:54;;;;;;;24.13;12.30;;;;;;;12.26;100.00;102235.59;5186598;28;20029;-82
2021/09/06 01:37:25;;;;;;;20.48;11.13;;;;;;;12.06;100.00;102235.59;5187999;28;20033;-83
2021/09/06 01:39:56;;;;;;;23.83;12.20;;;;;;;11.97;100.00;102241.84;5188256;28;20053;-83
2021/09/06 01:42:27;;;;;;;45.30;20.42;;;;;;;11.99;100.00;102237.16;5188342;28;20138;-83
2021/09/06 01:44:57;;;;;;;49.03;19.98;;;;;;;11.87;100.00;102235.59;5187387;28;20121;-82
2021/09/06 01:47:28;;;;;;;42.45;18.13;;;;;;;11.78;100.00;102239.09;5189130;28;20390;-83
2021/09/06 01:50:06;;;;;;;36.22;17.95;;;;;;;11.67;100.00;102243.63;5178640;28;20026;-82
2021/09/06 01:52:36;;;;;;;41.95;18.35;;;;;;;11.60;100.00;102242.50;5190816;28;20479;-83
2021/09/06 01:55:07;;;;;;;47.13;20.17;;;;;;;11.57;100.00;102245.44;5187184;28;20094;-83
2021/09/06 01:57:38;;;;;;;38.33;18.60;;;;;;;11.53;100.00;102257.44;5186523;28;20029;-83
2021/09/06 02:00:11;;;;;;;41.60;17.63;;;;;;;11.47;100.00;102252.63;5187778;28;20096;-82
2021/09/06 02:02:42;;;;;;;41.85;19.92;;;;;;;11.45;100.00;102246.56;5188179;28;20022;-81
2021/09/06 02:05:19;;;;;;;52.78;21.13;;;;;;;11.44;100.00;102244.84;5187430;28;20460;-82
2021/09/06 02:07:51;;;;;;;52.95;20.17;;;;;;;11.41;100.00;102234.38;5186226;28;20057;-82
2021/09/06 02:10:22;;;;;;;45.00;17.17;;;;;;;11.38;100.00;102246.25;5186937;28;20030;-82
2021/09/06 02:12:53;;;;;;;19.25;7.75;;;;;;;11.32;100.00;102238.75;5186427;28;20018;-83
2021/09/06 02:15:23;;;;;;;14.18;6.72;;;;;;;11.26;100.00;102241.13;5185196;28;20061;-84
2021/09/06 02:17:54;;;;;;;34.22;14.90;;;;;;;11.18;100.00;102241.78;5185512;28;20378;-82
2021/09/06 02:20:26;;;;;;;46.20;19.23;;;;;;;11.20;100.00;102244.38;5184328;28;20068;-83
2021/09/06 02:22:56;;;;;;;218.90;77.60;;;;;;;11.24;100.00;102238.56;5185182;28;20062;-83
2021/09/06 02:25:27;;;;;;;722.50;133.13;;;;;;;11.32;100.00;102237.88;5185048;28;20026;-83
2021/09/06 02:27:57;;;;;;;30.75;15.93;;;;;;;11.48;100.00;102237.34;5186745;28;20036;-82
2021/09/06 02:30:28;;;;;;;1605.38;182.77;;;;;;;11.36;100.00;102234.78;5186679;28;20060;-82
2021/09/06 02:32:59;;;;;;;32.58;15.32;;;;;;;11.43;100.00;102231.56;5187042;28;20022;-81
2021/09/06 02:35:30;;;;;;;32.42;15.43;;;;;;;11.34;100.00;102234.06;5185657;28;20164;-83
2021/09/06 02:38:00;;;;;;;27.15;13.40;;;;;;;11.20;100.00;102229.09;5186530;28;20258;-83
2021/09/06 02:40:30;;;;;;;35.25;16.50;;;;;;;11.15;100.00;102240.25;5186448;28;20026;-82
2021/09/06 02:43:01;;;;;;;37.17;16.25;;;;;;;11.10;100.00;102237.13;5185154;28;20152;-83
2021/09/06 02:45:31;;;;;;;36.55;17.30;;;;;;;11.07;100.00;102242.75;5185844;28;20018;-82
2021/09/06 02:48:02;;;;;;;47.50;19.65;;;;;;;11.04;100.00;102240.31;5185453;28;20021;-81
2021/09/06 02:50:33;;;;;;;45.53;19.77;;;;;;;10.98;100.00;102242.72;5173277;28;20037;-81
2021/09/06 02:53:03;;;;;;;40.78;19.13;;;;;;;10.92;100.00;102241.41;5186101;28;20018;-82
2021/09/06 02:55:34;;;;;;;44.20;18.88;;;;;;;10.91;100.00;102233.50;5185337;28;20025;-83
2021/09/06 02:58:04;;;;;;;1999.90;412.77;;;;;;;11.31;100.00;102238.88;5186250;28;20058;-83
2021/09/06 03:00:35;;;;;;;1999.90;930.33;;;;;;;11.73;100.00;102244.91;5186344;28;20609;-83
2021/09/06 03:03:05;;;;;;;74.63;28.38;;;;;;;11.85;100.00;102232.22;5186672;28;20124;-83
2021/09/06 03:05:36;;;;;;;52.40;19.25;;;;;;;11.57;100.00;102239.22;5183697;28;20026;-82
2021/09/06 03:08:06;;;;;;;78.30;27.50;;;;;;;11.50;100.00;102238.09;5176333;28;20154;-82
2021/09/06 03:10:37;;;;;;;30.50;14.25;;;;;;;11.32;100.00;102237.88;5175646;28;20023;-82
2021/09/06 03:13:07;;;;;;;26.65;13.65;;;;;;;11.13;100.00;102236.84;5175970;28;20029;-81
2021/09/06 03:15:38;;;;;;;32.35;16.23;;;;;;;10.98;100.00;102242.72;5179001;28;20026;-83
2021/09/06 03:18:08;;;;;;;29.98;15.30;;;;;;;10.87;100.00;102243.66;5180969;28;20356;-83
2021/09/06 03:20:39;;;;;;;32.33;16.67;;;;;;;10.80;100.00;102240.66;5180536;28;20033;-83
2021/09/06 03:23:09;;;;;;;28.50;14.90;;;;;;;10.75;100.00;102234.00;5187347;28;20029;-83
2021/09/06 03:25:40;;;;;;;902.17;146.07;;;;;;;10.82;100.00;102237.84;5189622;28;20029;-82
2021/09/06 03:28:10;;;;;;;47.10;19.02;;;;;;;10.87;100.00;102238.28;5190609;28;20022;-83
2021/09/06 03:30:41;;;;;;;345.58;53.17;;;;;;;10.92;100.00;102230.69;5192356;28;20029;-83
2021/09/06 03:33:14;;;;;;;32.33;14.02;;;;;;;10.90;100.00;102235.34;5192416;28;20083;-83
2021/09/06 03:35:44;;;;;;;120.40;45.95;;;;;;;10.90;100.00;102235.34;5191142;28;20038;-83
2021/09/06 03:38:14;;;;;;;309.75;42.55;;;;;;;10.81;100.00;102230.78;5190120;28;20549;-83
2021/09/06 03:40:45;;;;;;;1999.90;715.90;;;;;;;10.93;100.00;102229.69;5190797;28;20026;-83
2021/09/06 03:43:15;;;;;;;44.85;18.90;;;;;;;11.08;100.00;102231.00;5199749;28;20045;-82
2021/09/06 03:45:46;;;;;;;32.75;16.05;;;;;;;10.98;100.00;102230.13;5182288;28;20033;-83
2021/09/06 03:48:16;;;;;;;1999.90;282.40;;;;;;;10.89;100.00;102239.00;5164890;28;20361;-82
2021/09/06 03:50:47;;;;;;;40.75;18.42;;;;;;;10.87;100.00;102238.28;5174242;28;20026;-83
2021/09/06 03:53:17;;;;;;;31.98;15.38;;;;;;;10.76;100.00;102238.38;5191708;28;20082;-83
2021/09/06 03:55:48;;;;;;;35.22;15.18;;;;;;;10.80;100.00;102237.97;5189530;28;20037;-82
2021/09/06 03:58:18;;;;;;;56.20;29.30;;;;;;;11.01;100.00;102232.56;5186440;28;20017;-83
2021/09/06 04:00:49;;;;;;;35.95;13.07;;;;;;;10.91;100.00;102237.03;5184667;28;20037;-82
2021/09/06 04:03:19;;;;;;;17.23;10.00;;;;;;;10.79;100.00;102238.09;5183084;28;20022;-83
2021/09/06 04:05:50;;;;;;;19.77;10.05;;;;;;;10.64;100.00;102234.91;5183856;28;20116;-82
2021/09/06 04:08:22;;;;;;;27.08;11.63;;;;;;;10.54;100.00;102234.00;5184048;28;20041;-82
2021/09/06 04:10:52;;;;;;;30.73;14.13;;;;;;;10.48;100.00;102240.75;5183993;28;20087;-82
2021/09/06 04:13:23;;;;;;;32.95;16.85;;;;;;;10.42;100.00;102241.28;5184055;28;20018;-82
2021/09/06 04:15:53;;;;;;;33.28;15.43;;;;;;;10.34;100.00;102238.41;5183680;28;20029;-82
2021/09/06 04:18:26;;;;;;;34.67;14.95;;;;;;;10.26;100.00;102241.75;5184530;28;20030;-83
2021/09/06 04:20:57;;;;;;;40.72;17.35;;;;;;;10.28;100.00;102239.78;5178596;28;20026;-82
2021/09/06 04:23:28;;;;;;;1999.90;733.92;;;;;;;10.38;100.00;102240.69;5171218;28;20030;-82
2021/09/06 04:26:00;;;;;;;55.60;22.80;;;;;;;10.59;100.00;102240.69;5182290;28;20529;-83
2021/09/06 04:28:31;;;;;;;46.15;18.75;;;;;;;10.56;100.00;102251.69;5184291;28;20029;-82
2021/09/06 04:31:01;;;;;;;576.15;76.22;;;;;;;10.49;100.00;102242.47;5184115;28;20022;-83
2021/09/06 04:33:32;;;;;;;33.42;16.27;;;;;;;10.53;100.00;102241.22;5183759;28;20030;-82
2021/09/06 04:36:03;;;;;;;32.28;14.13;;;;;;;10.43;100.00;102237.63;5182353;28;20467;-82
2021/09/06 04:38:33;;;;;;;21.45;10.77;;;;;;;10.35;100.00;102250.84;5183953;28;20403;-82
2021/09/06 04:41:04;;;;;;;25.50;11.32;;;;;;;10.26;100.00;102254.31;5183416;28;20383;-82
2021/09/06 04:43:34;;;;;;;29.42;13.02;;;;;;;10.23;100.00;102255.38;5198971;28;20064;-83
2021/09/06 04:46:05;;;;;;;29.52;13.80;;;;;;;10.18;100.00;102254.91;5182291;28;20470;-83
2021/09/06 04:48:35;;;;;;;26.40;11.75;;;;;;;10.13;100.00;102255.28;5183474;28;20037;-82
2021/09/06 04:51:05;;;;;;;22.70;11.68;;;;;;;10.12;100.00;102258.13;5173057;28;20050;-82
2021/09/06 04:53:36;;;;;;;33.95;17.83;;;;;;;10.17;100.00;102263.94;5182263;28;20026;-82
2021/09/06 04:56:08;;;;;;;30.13;13.52;;;;;;;10.15;100.00;102259.72;5183476;28;20411;-83
2021/09/06 04:58:40;;;;;;;26.60;11.98;;;;;;;10.12;100.00;102267.00;5183313;28;20040;-82
2021/09/06 05:01:10;;;;;;;31.08;15.18;;;;;;;10.11;100.00;102273.34;5162699;28;20030;-83
2021/09/06 05:03:40;;;;;;;27.08;12.77;;;;;;;10.12;100.00;102271.53;5179203;28;20088;-82
2021/09/06 05:06:11;;;;;;;26.58;11.70;;;;;;;10.11;100.00;102276.03;5181538;28;20386;-82
2021/09/06 05:08:41;;;;;;;21.55;11.00;;;;;;;10.10;100.00;102271.66;5182232;28;20029;-83
2021/09/06 05:11:12;;;;;;;18.00;10.40;;;;;;;10.13;100.00;102273.22;5181583;28;20108;-82
2021/09/06 05:13:42;;;;;;;24.75;12.30;;;;;;;10.17;100.00;102272.00;5181969;28;20025;-82
2021/09/06 05:16:13;;;;;;;15.23;7.60;;;;;;;10.23;100.00;102265.25;5176924;28;20018;-83
2021/09/06 05:18:44;;;;;;;12.88;7.00;;;;;;;10.20;100.00;102268.22;5182365;28;20478;-82
2021/09/06 05:21:15;;;;;;;11.38;6.82;;;;;;;10.19;100.00;102271.84;5181032;28;20160;-82
2021/09/06 05:23:46;;;;;;;15.70;7.93;;;;;;;10.19;100.00;102270.06;5181712;28;20050;-83
2021/09/06 05:26:16;;;;;;;24.63;10.70;;;;;;;10.25;100.00;102284.81;5182458;28;20472;-83
2021/09/06 05:28:48;;;;;;;27.20;12.80;;;;;;;10.35;100.00;102286.56;5183575;28;20076;-81
2021/09/06 05:31:18;;;;;;;27.73;12.38;;;;;;;10.45;100.00;102292.00;5183695;28;20029;-82
2021/09/06 05:33:49;;;;;;;23.10;11.77;;;;;;;10.53;100.00;102294.03;5184610;28;20025;-82
2021/09/06 05:36:19;;;;;;;32.30;14.18;;;;;;;10.54;100.00;102295.72;5182536;28;20475;-82
2021/09/06 05:38:51;;;;;;;37.65;15.52;;;;;;;10.58;100.00;102294.47;5183584;28;20030;-82
2021/09/06 05:41:21;;;;;;;34.92;15.63;;;;;;;10.70;100.00;102297.97;5182386;28;20125;-81
2021/09/06 05:43:52;;;;;;;31.17;14.85;;;;;;;10.87;100.00;102295.50;5182695;28;20109;-80
2021/09/06 05:46:22;;;;;;;32.88;15.38;;;;;;;10.94;100.00;102301.19;5182310;28;20509;-82
2021/09/06 05:48:53;;;;;;;28.95;13.45;;;;;;;11.03;100.00;102300.41;5180407;28;20108;-84
2021/09/06 05:51:25;;;;;;;30.08;14.40;;;;;;;11.26;100.00;102310.97;5171144;28;20487;-87
2021/09/06 05:53:55;;;;;;;29.58;13.98;;;;;;;11.48;100.00;102315.28;5182241;28;20050;-83
2021/09/06 05:56:26;;;;;;;28.58;12.98;;;;;;;11.70;100.00;102311.53;5181587;28;20049;-83
2021/09/06 05:58:56;;;;;;;33.50;14.10;;;;;;;12.10;100.00;102317.72;5181821;28;20104;-83
2021/09/06 06:01:27;;;;;;;41.13;14.88;;;;;;;12.19;100.00;102321.41;5181089;28;20379;-85
2021/09/06 06:03:57;;;;;;;27.75;13.02;;;;;;;12.15;100.00;102325.38;5180635;28;20037;-82
2021/09/06 06:06:29;;;;;;;30.20;13.10;;;;;;;12.05;100.00;102325.38;5181483;28;20029;-83
2021/09/06 06:08:59;;;;;;;35.40;12.88;;;;;;;12.04;100.00;102328.19;5188596;28;20041;-82
2021/09/06 06:11:30;;;;;;;38.20;14.98;;;;;;;12.06;100.00;102331.59;5182707;28;20025;-82
2021/09/06 06:14:01;;;;;;;35.35;15.15;;;;;;;12.05;100.00;102330.75;5177813;28;20109;-83
2021/09/06 06:16:31;;;;;;;42.67;16.35;;;;;;;12.13;100.00;102344.34;5177675;28;20037;-81
2021/09/06 06:19:02;;;;;;;37.67;15.38;;;;;;;12.18;100.00;102341.22;5181167;28;20479;-83
2021/09/06 06:21:33;;;;;;;42.70;15.93;;;;;;;12.27;100.00;102351.16;5182542;28;20109;-84
2021/09/06 06:24:04;;;;;;;44.38;16.63;;;;;;;12.36;100.00;102355.69;5182341;28;20036;-83
2021/09/06 06:26:34;;;;;;;40.92;17.10;;;;;;;12.47;100.00;102357.38;5182937;28;20112;-81
2021/09/06 06:29:05;;;;;;;40.88;18.15;;;;;;;12.59;100.00;102350.00;5182121;28;20032;-83
2021/09/06 06:31:35;;;;;;;52.45;21.23;;;;;;;12.76;100.00;102352.00;5160243;28;20022;-83
2021/09/06 06:34:06;;;;;;;48.45;22.10;;;;;;;12.90;100.00;102351.53;5177551;28;20057;-84
2021/09/06 06:36:36;;;;;;;49.22;20.02;;;;;;;13.05;100.00;102348.38;5181909;28;20502;-82
2021/09/06 06:39:07;;;;;;;59.72;22.63;;;;;;;13.24;100.00;102358.28;5181749;28;20026;-83
2021/09/06 06:41:38;;;;;;;55.83;22.88;;;;;;;13.40;100.00;102356.69;5182221;28;20050;-85
2021/09/06 06:44:08;;;;;;;61.55;24.13;;;;;;;13.57;100.00;102359.56;5182092;28;20033;-83
2021/09/06 06:46:39;;;;;;;62.63;25.30;;;;;;;13.73;100.00;102362.47;5180302;28;20080;-85
2021/09/06 06:49:10;;;;;;;62.35;27.88;;;;;;;13.85;100.00;102363.09;5181882;28;20399;-84
2021/09/06 06:51:40;;;;;;;61.78;26.15;;;;;;;14.02;100.00;102370.41;5183724;28;20033;-82
2021/09/06 06:54:11;;;;;;;61.17;25.67;;;;;;;14.12;100.00;102363.09;5185245;28;20033;-82
2021/09/06 06:56:41;;;;;;;68.90;27.58;;;;;;;14.29;100.00;102380.28;5182576;28;20486;-83
2021/09/06 06:59:12;;;;;;;67.65;27.88;;;;;;;14.41;100.00;102383.63;5190660;28;20022;-84
2021/09/06 07:01:42;;;;;;;67.38;27.52;;;;;;;14.53;100.00;102377.00;5186470;28;20105;-85
2021/09/06 07:04:13;;;;;;;69.35;29.70;;;;;;;14.66;100.00;102382.00;5182750;28;20033;-83
2021/09/06 07:06:43;;;;;;;73.32;29.23;;;;;;;14.82;100.00;102376.75;5182248;28;20033;-82
2021/09/06 07:09:14;;;;;;;72.57;32.03;;;;;;;14.92;100.00;102384.75;5163555;28;20022;-83
2021/09/06 07:11:45;;;;;;;70.90;30.50;;;;;;;15.08;100.00;102384.88;5179217;28;20120;-83
2021/09/06 07:14:15;;;;;;;77.65;31.60;;;;;;;15.20;100.00;102382.75;5181058;28;20431;-82
2021/09/06 07:16:46;;;;;;;67.57;32.05;;;;;;;15.34;100.00;102382.16;5180917;28;20022;-83
2021/09/06 07:19:16;;;;;;;77.40;34.35;;;;;;;15.45;100.00;102386.44;5181225;28;20041;-83
2021/09/06 07:21:46;;;;;;;73.55;33.17;;;;;;;15.58;100.00;102388.72;5180669;28;20108;-83
2021/09/06 07:24:17;;;;;;;78.85;32.83;;;;;;;15.75;100.00;102390.50;5179326;28;20509;-83
2021/09/06 07:26:47;;;;;;;71.90;33.22;;;;;;;15.90;100.00;102394.28;5180354;28;20060;-83
2021/09/06 07:29:18;;;;;;;66.57;31.95;;;;;;;16.04;100.00;102398.22;5181178;28;20045;-83
2021/09/06 07:31:48;;;;;;;74.00;33.08;;;;;;;16.24;100.00;102396.91;5180106;28;20041;-84
2021/09/06 07:34:19;;;;;;;72.43;34.83;;;;;;;16.46;100.00;102390.00;5180406;28;20026;-83
2021/09/06 07:36:49;;;;;;;72.75;32.13;;;;;;;16.65;100.00;102388.84;5180111;28;20018;-85
2021/09/06 07:39:20;;;;;;;69.68;31.83;;;;;;;16.79;100.00;102396.34;5180528;28;20382;-83
2021/09/06 07:41:50;;;;;;;62.85;31.58;;;;;;;16.96;100.00;102389.03;5180865;28;20030;-82
2021/09/06 07:44:21;;;;;;;72.13;31.63;;;;;;;17.17;100.00;102388.50;5180895;28;20022;-81
2021/09/06 07:46:52;;;;;;;70.30;31.50;;;;;;;17.30;100.00;102396.94;5180452;28;20040;-83
2021/09/06 07:49:23;;;;;;;68.35;30.77;;;;;;;17.43;100.00;102403.72;5176134;28;20251;-82
2021/09/06 07:51:53;;;;;;;70.57;30.98;;;;;;;17.60;100.00;102397.19;5174515;28;20349;-82
2021/09/06 07:54:25;;;;;;;68.80;32.55;;;;;;;17.79;100.00;102399.53;5179260;28;20034;-83
2021/09/06 07:56:56;;;;;;;67.20;30.13;;;;;;;17.95;100.00;102395.06;5180344;28;20033;-84
2021/09/06 07:59:26;;;;;;;66.28;30.42;;;;;;;18.20;100.00;102412.91;5163119;28;20030;-82
2021/09/06 08:01:57;;;;;;;67.25;31.95;;;;;;;18.29;100.00;102406.41;5180308;28;20034;-83
2021/09/06 08:04:27;;;;;;;77.38;30.00;;;;;;;18.61;100.00;102412.63;5180251;28;20025;-83
2021/09/06 08:06:58;;;;;;;62.55;29.90;;;;;;;18.78;100.00;102410.69;5178553;28;20030;-84
2021/09/06 08:09:28;;;;;;;57.90;28.25;;;;;;;18.96;100.00;102410.34;5180392;28;20030;-84
2021/09/06 08:11:59;;;;;;;60.47;30.40;;;;;;;19.18;100.00;102420.34;5177021;28;20097;-83
2021/09/06 08:14:29;;;;;;;57.78;30.08;;;;;;;19.46;100.00;102419.69;5176910;28;20034;-83
2021/09/06 08:17:00;;;;;;;69.07;30.52;;;;;;;19.64;100.00;102422.94;5182759;28;20384;-83
2021/09/06 08:19:30;;;;;;;56.72;28.35;;;;;;;19.87;100.00;102423.66;5183812;28;20033;-84
2021/09/06 08:22:01;;;;;;;58.15;26.73;;;;;;;19.93;100.00;102427.53;5184184;28;20452;-83
2021/09/06 08:24:32;;;;;;;50.83;26.52;;;;;;;20.18;100.00;102428.00;5166002;28;20029;-84
2021/09/06 08:27:02;;;;;;;57.00;28.05;;;;;;;20.36;100.00;102427.59;5182182;28;20502;-84
2021/09/06 08:29:34;;;;;;;57.35;27.65;;;;;;;20.42;100.00;102421.38;5184096;28;20030;-87
2021/09/06 08:32:05;;;;;;;58.67;29.38;;;;;;;20.45;100.00;102426.44;5171914;28;20022;-82
2021/09/06 08:34:36;;;;;;;59.03;29.88;;;;;;;20.47;100.00;102431.72;5171671;28;20030;-83
2021/09/06 08:37:06;;;;;;;59.55;30.30;;;;;;;20.53;100.00;102429.06;5181981;28;20048;-84
2021/09/06 08:39:37;;;;;;;53.80;27.52;;;;;;;20.97;100.00;102432.63;5182806;28;20034;-82
2021/09/06 08:42:08;;;;;;;56.53;27.83;;;;;;;20.95;100.00;102425.50;5182852;28;20501;-82
2021/09/06 08:44:39;;;;;;;58.45;29.55;;;;;;;21.02;100.00;102422.81;5181878;28;20076;-82
2021/09/06 08:47:10;;;;;;;54.53;28.15;;;;;;;21.18;100.00;102425.25;5182336;28;20029;-84
2021/09/06 08:49:42;;;;;;;58.53;31.20;;;;;;;20.99;100.00;102433.28;5177371;28;20029;-85
2021/09/06 08:52:14;;;;;;;58.00;30.58;;;;;;;21.15;100.00;102442.03;5178985;28;20030;-82
2021/09/06 08:54:44;;;;;;;61.97;30.10;;;;;;;21.21;100.00;102440.38;5182915;28;20045;-83
2021/09/06 08:57:15;;;;;;;54.42;28.67;;;;;;;21.38;100.00;102443.69;5182538;28;20510;-82
2021/09/06 08:59:47;;;;;;;55.47;28.67;;;;;;;21.38;100.00;102433.59;5182618;28;20167;-82
2021/09/06 09:02:23;;;;;;;57.10;26.95;;;;;;;21.57;100.00;102440.25;5181827;28;20026;-82
2021/09/06 09:04:59;;;;;;;55.22;29.70;;;;;;;21.67;100.00;102437.16;5180814;28;20037;-82
2021/09/06 09:07:30;;;;;;;51.58;27.38;;;;;;;21.96;100.00;102445.09;5182532;28;20034;-83
2021/09/06 09:10:03;;;;;;;63.75;28.73;;;;;;;21.91;100.00;102444.84;5182495;28;20044;-82
2021/09/06 09:12:33;;;;;;;58.28;27.38;;;;;;;21.88;100.00;102442.50;5182434;28;20414;-83
2021/09/06 09:15:05;;;;;;;57.28;28.55;;;;;;;22.03;100.00;102445.09;5182099;28;20109;-82
2021/09/06 09:17:36;;;;;;;59.50;27.75;;;;;;;22.43;100.00;102439.81;5181373;28;20028;-82
2021/09/06 09:20:07;;;;;;;56.17;26.58;;;;;;;22.49;100.00;102442.56;5181945;28;20038;-80
2021/09/06 09:22:39;;;;;;;51.00;26.20;;;;;;;22.61;100.00;102436.50;5181298;28;20065;-83
2021/09/06 09:25:12;;;;;;;57.03;32.58;;;;;;;22.66;100.00;102436.72;5181320;28;20030;-82
2021/09/06 09:27:44;;;;;;;53.33;26.63;;;;;;;22.53;100.00;102429.31;5182475;28;20051;-82
2021/09/06 09:30:25;;;;;;;56.13;26.80;;;;;;;22.72;100.00;102435.88;5181682;28;20057;-81
2021/09/06 09:33:10;;;;;;;52.03;24.67;;;;;;;23.03;100.00;102427.06;5182140;28;20041;-82
2021/09/06 09:35:41;;;;;;;;;;;;;;;23.45;100.00;102428.50;5181976;28;20209;-82
2021/09/06 09:38:13;;;;;;;45.15;23.00;;;;;;;23.62;100.00;102420.66;5182123;28;20217;-83
2021/09/06 09:40:46;;;;;;;43.15;22.85;;;;;;;23.93;100.00;102417.22;5181337;28;20034;-83
2021/09/06 09:43:16;;;;;;;37.30;19.52;;;;;;;23.85;100.00;102417.47;5180896;28;20026;-82
2021/09/06 09:45:47;;;;;;;42.22;20.70;;;;;;;23.96;100.00;102422.28;5181749;28;20037;-82
2021/09/06 09:48:22;;;;;;;39.30;21.20;;;;;;;24.24;100.00;102424.66;5182331;28;20129;-83
2021/09/06 09:50:53;;;;;;;38.35;21.52;;;;;;;24.35;100.00;102425.00;5182386;28;20370;-83
2021/09/06 09:53:24;;;;;;;42.55;21.83;;;;;;;24.23;100.00;102433.09;5182551;28;20475;-84
2021/09/06 09:55:55;;;;;;;43.72;22.08;;;;;;;24.30;100.00;102436.66;5181987;28;20021;-83
2021/09/06 09:58:25;;;;;;;43.38;21.40;;;;;;;24.24;100.00;102429.28;5182424;28;20032;-85
2021/09/06 10:00:57;;;;;;;40.42;21.42;;;;;;;24.39;100.00;102429.03;5181558;28;20026;-83
2021/09/06 10:03:32;;;;;;;42.03;21.35;;;;;;;24.50;100.00;102436.59;5181687;28;20026;-83
2021/09/06 10:06:03;;;;;;;37.85;20.27;;;;;;;24.50;100.00;102434.69;5181996;28;20030;-82
2021/09/06 10:08:35;;;;;;;34.67;20.35;;;;;;;24.45;100.00;102439.13;5182287;28;20037;-83
2021/09/06 10:11:12;;;;;;;39.97;19.42;;;;;;;24.50;100.00;102434.69;5180231;28;20192;-81
2021/09/06 10:13:42;;;;;;;32.42;17.80;;;;;;;24.46;100.00;102441.66;5170063;28;20383;-83
2021/09/06 10:16:13;;;;;;;32.28;15.73;;;;;;;24.61;100.00;102438.63;5181936;28;20020;-81
2021/09/06 10:18:44;;;;;;;31.30;15.45;;;;;;;24.70;90.68;102439.16;5182676;28;20076;-83
2021/09/06 10:21:17;;;;;;;37.25;20.23;;;;;;;24.64;93.46;102440.88;5181281;28;20029;-82
2021/09/06 10:23:49;;;;;;;39.97;21.33;;;;;;;24.63;96.55;102436.47;5182482;28;20436;-82
2021/09/06 10:26:19;;;;;;;36.35;18.50;;;;;;;24.74;97.51;102435.75;5181310;28;20084;-82
2021/09/06 10:28:50;;;;;;;36.75;20.08;;;;;;;24.77;91.98;102435.31;5182378;28;20026;-83
2021/09/06 10:31:22;;;;;;;30.65;17.25;;;;;;;24.80;99.98;102431.31;5181083;28;20029;-82
2021/09/06 10:33:59;;;;;;;38.97;19.02;;;;;;;25.00;87.57;102433.84;5180247;28;20022;-82
2021/09/06 10:36:30;;;;;;;34.58;20.50;;;;;;;25.08;100.00;102433.63;5180485;28;20029;-82
2021/09/06 10:39:06;;;;;;;43.15;20.10;;;;;;;25.08;94.78;102425.38;5180735;28;20048;-82
2021/09/06 10:41:47;;;;;;;39.65;19.90;;;;;;;24.97;100.00;102421.44;5181443;28;20033;-82
2021/09/06 10:44:18;;;;;;;35.85;18.48;;;;;;;25.08;100.00;102421.81;5181144;28;20088;-83
2021/09/06 10:46:57;;;;;;;69.15;20.60;;;;;;;25.30;100.00;102425.81;5181077;28;20021;-83
2021/09/06 10:49:28;;;;;;;40.88;19.80;;;;;;;25.46;100.00;102421.66;5181888;28;20492;-82
2021/09/06 10:52:00;;;;;;;47.60;19.63;;;;;;;25.73;100.00;102417.53;5181261;28;20025;-83
2021/09/06 10:54:32;;;;;;;34.40;19.33;;;;;;;26.18;80.78;102416.34;5181176;28;20030;-82
2021/09/06 10:57:06;;;;;;;33.90;17.67;;;;;;;26.11;84.74;102410.13;5180646;28;20033;-83
2021/09/06 10:59:36;;;;;;;32.42;16.08;;;;;;;26.26;92.58;102416.88;5181350;28;20418;-83
2021/09/06 11:02:08;;;;;;;38.70;17.73;;;;;;;26.36;95.24;102421.81;5181564;28;20026;-83
2021/09/06 11:04:39;;;;;;;33.75;17.75;;;;;;;26.29;94.55;102418.31;5181979;28;20414;-82
2021/09/06 11:07:11;;;;;;;42.97;22.25;;;;;;;26.28;77.27;102422.13;5181157;28;20076;-82
2021/09/06 11:09:41;;;;;;;36.35;22.02;;;;;;;26.32;80.29;102421.44;5181776;28;20032;-82
2021/09/06 11:12:12;;;;;;;38.53;22.45;;;;;;;26.37;83.17;102418.00;5181638;28;20499;-82
2021/09/06 11:14:44;;;;;;;46.20;21.83;;;;;;;26.45;99.97;102416.84;5181413;28;20038;-83
2021/09/06 11:17:23;;;;;;;34.92;19.83;;;;;;;26.20;100.00;102412.28;5182381;28;20026;-82
2021/09/06 11:19:56;;;;;;;34.03;20.08;;;;;;;26.52;78.11;102410.16;5175850;28;20510;-83